createdAt,value
2022-10-08T00:00:08.356Z,101528.91
2022-10-08T00:02:34.669Z,101526.28
2022-10-08T00:05:00.971Z,101529.75
2022-10-08T00:07:27.289Z,101531.38
2022-10-08T00:09:53.638Z,101526.31
2022-10-08T00:12:19.937Z,101531.56
2022-10-08T00:14:47.082Z,101539.06
2022-10-08T00:17:13.412Z,101535.44
2022-10-08T00:19:39.702Z,101548.19
2022-10-08T00:22:06.009Z,101550.19
2022-10-08T00:24:32.376Z,101535.41
2022-10-08T00:26:58.683Z,101546.16
2022-10-08T00:29:24.974Z,101550.00
2022-10-08T00:31:51.667Z,101558.09
2022-10-08T00:34:20.929Z,101559.50
2022-10-08T00:36:51.211Z,101563.34
2022-10-08T00:39:20.015Z,101544.53
2022-10-08T00:41:49.357Z,101566.78
2022-10-08T00:44:46.438Z,101564.56
2022-10-08T00:47:17.520Z,101562.94
2022-10-08T00:49:44.315Z,101567.81
2022-10-08T00:52:10.801Z,101563.75
2022-10-08T00:54:37.265Z,101567.19
2022-10-08T00:57:03.598Z,101566.38
2022-10-08T00:59:29.934Z,101566.56
2022-10-08T01:01:56.291Z,101579.16
2022-10-08T01:04:22.700Z,101579.94
2022-10-08T01:07:01.033Z,101584.59
2022-10-08T01:09:46.271Z,101592.50
2022-10-08T01:12:34.454Z,101591.88
2022-10-08T01:15:23.658Z,101586.81
2022-10-08T01:17:56.908Z,101588.03
2022-10-08T01:20:42.669Z,101587.44
2022-10-08T01:23:18.075Z,101589.47
2022-10-08T01:25:59.655Z,101577.72
2022-10-08T01:28:42.300Z,101572.84
2022-10-08T01:31:18.385Z,101551.41
2022-10-08T01:33:57.910Z,101560.53
2022-10-08T01:36:27.439Z,101539.69
2022-10-08T01:38:57.506Z,101537.25
2022-10-08T01:41:26.205Z,101548.19
2022-10-08T01:44:01.246Z,101537.25
2022-10-08T01:46:30.881Z,101540.88
2022-10-08T01:49:02.765Z,101549.59
2022-10-08T01:51:34.541Z,101556.88
2022-10-08T01:54:08.739Z,101567.41
2022-10-08T01:56:38.018Z,101558.06
2022-10-08T01:59:14.944Z,101566.38
2022-10-08T02:01:54.436Z,101562.53
2022-10-08T02:04:21.117Z,101565.34
2022-10-08T02:06:54.184Z,101558.88
2022-10-08T02:09:22.159Z,101545.94
2022-10-08T02:11:48.469Z,101556.06
2022-10-08T02:14:14.841Z,101563.34
2022-10-08T02:16:50.281Z,101559.25
2022-10-08T02:19:46.662Z,101556.03
2022-10-08T02:22:18.033Z,101573.63
2022-10-08T02:24:51.786Z,101564.13
2022-10-08T02:27:25.830Z,101566.75
2022-10-08T02:30:02.396Z,101573.00
2022-10-08T02:32:37.021Z,101563.28
2022-10-08T02:35:13.766Z,101569.59
2022-10-08T02:37:57.777Z,101565.50
2022-10-08T02:40:24.879Z,101579.06
2022-10-08T02:42:57.746Z,101567.72
2022-10-08T02:45:31.989Z,101577.41
2022-10-08T02:48:05.204Z,101579.88
2022-10-08T02:50:34.506Z,101576.22
2022-10-08T02:53:02.163Z,101580.84
2022-10-08T02:55:40.562Z,101575.78
2022-10-08T02:58:10.899Z,101571.56
2022-10-08T03:00:42.969Z,101588.13
2022-10-08T03:03:12.171Z,101592.56
2022-10-08T03:05:39.960Z,101587.50
2022-10-08T03:08:08.302Z,101591.09
2022-10-08T03:10:37.930Z,101598.38
2022-10-08T03:13:05.129Z,101583.97
2022-10-08T03:15:33.417Z,101600.78
2022-10-08T03:18:02.126Z,101601.78
2022-10-08T03:20:29.622Z,101589.41
2022-10-08T03:22:59.683Z,101586.53
2022-10-08T03:25:26.024Z,101599.28
2022-10-08T03:27:52.331Z,101601.31
2022-10-08T03:30:18.722Z,101599.28
2022-10-08T03:32:45.326Z,101581.63
2022-10-08T03:35:11.891Z,101593.94
2022-10-08T03:37:38.239Z,101600.16
2022-10-08T03:40:05.028Z,101594.28
2022-10-08T03:42:31.335Z,101601.09
2022-10-08T03:44:57.635Z,101602.47
2022-10-08T03:47:23.985Z,101596.16
2022-10-08T03:49:50.282Z,101612.50
2022-10-08T03:52:16.561Z,101600.72
2022-10-08T03:54:42.884Z,101614.25
2022-10-08T03:57:09.210Z,101599.06
2022-10-08T03:59:35.514Z,101619.66
2022-10-08T04:02:01.824Z,101616.53
2022-10-08T04:04:28.213Z,101627.91
2022-10-08T04:06:54.578Z,101627.47
2022-10-08T04:09:20.900Z,101628.16
2022-10-08T04:11:47.211Z,101616.03
2022-10-08T04:14:13.520Z,101627.63
2022-10-08T04:16:39.820Z,101626.88
2022-10-08T04:19:06.151Z,101627.50
2022-10-08T04:21:32.471Z,101637.41
2022-10-08T04:23:58.827Z,101634.22
2022-10-08T04:26:25.164Z,101636.44
2022-10-08T04:28:51.559Z,101634.84
2022-10-08T04:31:19.815Z,101639.69
2022-10-08T04:33:46.643Z,101646.94
2022-10-08T04:36:19.382Z,101635.41
2022-10-08T04:38:46.452Z,101650.59
2022-10-08T04:41:18.559Z,101649.13
2022-10-08T04:43:45.620Z,101648.53
2022-10-08T04:46:14.694Z,101643.66
2022-10-08T04:48:46.294Z,101640.34
2022-10-08T04:51:12.679Z,101635.50
2022-10-08T04:53:39.018Z,101637.31
2022-10-08T04:56:11.123Z,101643.75
2022-10-08T04:58:37.376Z,101651.25
2022-10-08T05:01:08.587Z,101647.38
2022-10-08T05:03:39.907Z,101648.75
2022-10-08T05:06:07.450Z,101656.19
2022-10-08T05:08:34.551Z,101652.50
2022-10-08T05:11:00.899Z,101653.44
2022-10-08T05:13:27.712Z,101659.31
2022-10-08T05:15:54.096Z,101660.25
2022-10-08T05:18:20.742Z,101669.94
2022-10-08T05:20:47.035Z,101665.88
2022-10-08T05:23:13.499Z,101668.06
2022-10-08T05:25:39.855Z,101671.25
2022-10-08T05:28:06.205Z,101666.13
2022-10-08T05:30:32.534Z,101682.50
2022-10-08T05:32:58.879Z,101684.22
2022-10-08T05:35:25.173Z,101690.28
2022-10-08T05:37:51.509Z,101675.50
2022-10-08T05:40:17.806Z,101680.91
2022-10-08T05:42:44.335Z,101695.44
2022-10-08T05:45:10.802Z,101685.53
2022-10-08T05:47:37.138Z,101700.06
2022-10-08T05:50:03.679Z,101691.34
2022-10-08T05:52:30.955Z,101704.84
2022-10-08T05:54:57.289Z,101694.13
2022-10-08T05:57:23.614Z,101699.38
2022-10-08T05:59:49.938Z,101713.56
2022-10-08T06:02:16.229Z,101718.81
2022-10-08T06:04:43.092Z,101714.91
2022-10-08T06:07:09.504Z,101725.91
2022-10-08T06:09:35.836Z,101727.41
2022-10-08T06:12:02.145Z,101729.19
2022-10-08T06:14:28.503Z,101740.28
2022-10-08T06:16:54.801Z,101732.94
2022-10-08T06:19:21.148Z,101740.25
2022-10-08T06:21:47.593Z,101740.47
2022-10-08T06:24:13.970Z,101760.56
2022-10-08T06:26:42.689Z,101766.41
2022-10-08T06:29:15.869Z,101762.25
2022-10-08T06:31:42.728Z,101772.47
2022-10-08T06:34:09.346Z,101771.72
2022-10-08T06:36:36.037Z,101788.50
2022-10-08T06:39:05.502Z,101784.53
2022-10-08T06:41:32.201Z,101795.38
2022-10-08T06:43:58.586Z,101790.53
2022-10-08T06:46:25.016Z,101793.88
2022-10-08T06:48:51.430Z,101777.53
2022-10-08T06:51:19.128Z,101789.34
2022-10-08T06:53:51.346Z,101801.31
2022-10-08T06:56:17.702Z,101821.66
2022-10-08T06:58:44.428Z,101818.69
2022-10-08T07:01:19.437Z,101823.50
2022-10-08T07:03:54.592Z,101816.41
2022-10-08T07:06:21.245Z,101824.63
2022-10-08T07:08:47.590Z,101822.47
2022-10-08T07:11:18.492Z,101830.81
2022-10-08T07:13:45.110Z,101833.22
2022-10-08T07:16:20.784Z,101829.75
2022-10-08T07:18:48.933Z,101841.22
2022-10-08T07:21:16.874Z,101846.78
2022-10-08T07:23:43.968Z,101857.81
2022-10-08T07:26:18.974Z,101862.66
2022-10-08T07:28:53.410Z,101866.38
2022-10-08T07:31:23.105Z,101870.50
2022-10-08T07:33:49.801Z,101869.91
2022-10-08T07:36:19.502Z,101877.97
2022-10-08T07:38:45.839Z,101876.41
2022-10-08T07:41:12.756Z,101889.84
2022-10-08T07:43:39.730Z,101892.31
2022-10-08T07:46:06.598Z,101896.66
2022-10-08T07:48:34.338Z,101891.09
2022-10-08T07:51:15.128Z,101897.03
2022-10-08T07:53:42.509Z,101902.47
2022-10-08T07:56:10.941Z,101903.53
2022-10-08T07:58:38.074Z,101892.28
2022-10-08T08:01:06.897Z,101908.13
2022-10-08T08:03:33.297Z,101915.59
2022-10-08T08:06:07.461Z,101911.34
2022-10-08T08:08:35.705Z,101917.50
2022-10-08T08:11:04.056Z,101920.44
2022-10-08T08:13:36.745Z,101928.75
2022-10-08T08:16:15.179Z,101933.81
2022-10-08T08:18:45.383Z,101931.66
2022-10-08T08:21:14.587Z,101940.19
2022-10-08T08:23:43.587Z,101943.66
2022-10-08T08:26:18.384Z,101938.81
2022-10-08T08:28:45.144Z,101945.78
2022-10-08T08:31:12.982Z,101949.53
2022-10-08T08:33:39.982Z,101949.22
2022-10-08T08:36:07.050Z,101952.69
2022-10-08T08:38:38.043Z,101959.06
2022-10-08T08:41:21.217Z,101960.63
2022-10-08T08:43:48.117Z,101962.19
2022-10-08T08:46:19.249Z,101970.47
2022-10-08T08:48:46.042Z,101976.13
2022-10-08T08:51:12.727Z,101974.03
2022-10-08T08:53:39.078Z,101984.25
2022-10-08T08:56:10.630Z,101986.25
2022-10-08T08:58:36.833Z,101987.59
2022-10-08T09:01:09.124Z,101996.72
2022-10-08T09:03:49.819Z,101994.66
2022-10-08T09:06:19.543Z,101993.03
2022-10-08T09:09:13.931Z,101998.94
2022-10-08T09:11:41.446Z,102000.28
2022-10-08T09:14:10.480Z,102012.44
2022-10-08T09:16:36.875Z,102016.47
2022-10-08T09:19:03.242Z,102012.78
2022-10-08T09:21:31.351Z,102022.44
2022-10-08T09:23:57.764Z,102028.06
2022-10-08T09:26:26.158Z,102026.75
2022-10-08T09:28:57.546Z,102025.16
2022-10-08T09:31:40.184Z,102020.31
2022-10-08T09:34:12.622Z,102036.88
2022-10-08T09:36:57.853Z,102035.22
2022-10-08T09:40:06.237Z,102037.84
2022-10-08T09:42:32.577Z,102037.16
2022-10-08T09:44:58.926Z,102032.19
2022-10-08T09:47:26.692Z,102033.94
2022-10-08T09:50:13.192Z,102044.72
2022-10-08T09:52:40.751Z,102053.47
2022-10-08T09:55:41.114Z,102055.53
2022-10-08T09:58:18.499Z,102057.81
2022-10-08T10:00:45.237Z,102065.38
2022-10-08T10:03:19.630Z,102072.91
2022-10-08T10:05:51.300Z,102078.81
2022-10-08T10:08:53.354Z,102081.56
2022-10-08T10:11:25.680Z,102084.22
2022-10-08T10:13:52.727Z,102070.19
2022-10-08T10:16:32.702Z,102085.50
2022-10-08T10:19:01.614Z,102077.16
2022-10-08T10:21:43.096Z,102072.13
2022-10-08T10:24:31.294Z,102085.41
2022-10-08T10:27:06.279Z,102083.44
2022-10-08T10:29:58.610Z,102080.28
2022-10-08T10:32:35.295Z,102088.00
2022-10-08T10:35:17.185Z,102091.97
2022-10-08T10:38:01.684Z,102084.09
2022-10-08T10:40:39.646Z,102090.72
2022-10-08T10:43:17.873Z,102098.78
2022-10-08T10:45:51.874Z,102101.41
2022-10-08T10:48:18.279Z,102102.31
2022-10-08T10:51:08.093Z,102095.81
2022-10-08T10:54:00.674Z,102086.81
2022-10-08T10:56:35.010Z,102094.88
2022-10-08T10:59:23.247Z,102096.28
2022-10-08T11:01:58.517Z,102099.72
2022-10-08T11:04:39.797Z,102098.19
2022-10-08T11:07:16.511Z,102102.91
2022-10-08T11:09:57.998Z,102108.66
2022-10-08T11:12:27.185Z,102108.63
2022-10-08T11:15:06.476Z,102121.63
2022-10-08T11:17:46.948Z,102120.06
2022-10-08T11:20:42.169Z,102123.38
2022-10-08T11:23:32.454Z,102118.47
2022-10-08T11:26:22.431Z,102114.81
2022-10-08T11:29:24.925Z,102113.59
2022-10-08T11:31:53.053Z,102119.56
2022-10-08T11:34:36.835Z,102120.81
2022-10-08T11:37:26.876Z,102111.06
2022-10-08T11:40:08.154Z,102121.16
2022-10-08T11:42:45.113Z,102107.88
2022-10-08T11:45:15.022Z,102111.00
2022-10-08T11:47:41.303Z,102111.88
2022-10-08T11:50:29.459Z,102110.22
2022-10-08T11:53:12.296Z,102120.19
2022-10-08T11:55:38.743Z,102107.63
2022-10-08T11:58:17.564Z,102123.22
2022-10-08T12:00:46.766Z,102112.22
2022-10-08T12:03:29.172Z,102121.78
2022-10-08T12:06:12.875Z,102124.81
2022-10-08T12:08:49.842Z,102125.59
2022-10-08T12:11:34.198Z,102129.38
2022-10-08T12:14:12.688Z,102121.84
2022-10-08T12:16:48.120Z,102124.44
2022-10-08T12:19:32.822Z,102126.84
2022-10-08T12:22:03.762Z,102123.78
2022-10-08T12:24:39.204Z,102121.41
2022-10-08T12:27:17.874Z,102119.25
2022-10-08T12:30:07.028Z,102127.34
2022-10-08T12:32:39.358Z,102116.25
2022-10-08T12:35:18.317Z,102120.50
2022-10-08T12:38:03.022Z,102125.59
2022-10-08T12:40:42.025Z,102122.34
2022-10-08T12:43:38.874Z,102132.72
2022-10-08T12:46:10.954Z,102123.75
2022-10-08T12:48:49.189Z,102132.94
2022-10-08T12:51:24.709Z,102133.50
2022-10-08T12:53:51.385Z,102140.59
2022-10-08T12:56:22.709Z,102140.53
2022-10-08T12:58:49.636Z,102135.91
2022-10-08T13:01:19.783Z,102140.47
2022-10-08T13:03:46.853Z,102154.31
2022-10-08T13:06:30.503Z,102150.63
2022-10-08T13:08:59.434Z,102143.25
2022-10-08T13:11:25.781Z,102142.69
2022-10-08T13:13:52.082Z,102145.47
2022-10-08T13:16:24.828Z,102153.44
2022-10-08T13:18:55.664Z,102148.72
2022-10-08T13:21:30.985Z,102146.81
2022-10-08T13:24:17.568Z,102147.41
2022-10-08T13:26:49.492Z,102149.75
2022-10-08T13:29:21.911Z,102162.03
2022-10-08T13:32:04.519Z,102160.81
2022-10-08T13:34:39.708Z,102167.56
2022-10-08T13:37:23.086Z,102162.25
2022-10-08T13:39:58.870Z,102174.84
2022-10-08T13:42:28.930Z,102176.31
2022-10-08T13:44:57.829Z,102176.81
2022-10-08T13:47:24.161Z,102177.56
2022-10-08T13:49:50.466Z,102174.91
2022-10-08T13:52:19.867Z,102179.38
2022-10-08T13:54:47.126Z,102172.66
2022-10-08T13:57:13.962Z,102183.78
2022-10-08T13:59:40.339Z,102183.50
2022-10-08T14:02:07.546Z,102181.81
2022-10-08T14:04:33.930Z,102187.44
2022-10-08T14:07:02.222Z,102178.41
2022-10-08T14:09:29.559Z,102184.50
2022-10-08T14:11:57.722Z,102184.78
2022-10-08T14:14:24.245Z,102180.56
2022-10-08T14:16:51.538Z,102193.41
2022-10-08T14:19:18.385Z,102181.63
2022-10-08T14:21:44.764Z,102194.19
2022-10-08T14:24:12.294Z,102194.59
2022-10-08T14:26:38.671Z,102200.91
2022-10-08T14:29:04.978Z,102193.22
2022-10-08T14:31:31.495Z,102197.56
2022-10-08T14:33:57.847Z,102200.94
2022-10-08T14:36:31.182Z,102201.03
2022-10-08T14:38:57.585Z,102209.88
2022-10-08T14:41:23.941Z,102209.34
2022-10-08T14:43:50.241Z,102206.59
2022-10-08T14:46:16.607Z,102213.00
2022-10-08T14:48:42.937Z,102220.38
2022-10-08T14:51:09.255Z,102217.59
2022-10-08T14:53:35.559Z,102217.03
2022-10-08T14:56:12.204Z,102222.72
2022-10-08T14:58:39.014Z,102210.94
2022-10-08T15:01:05.469Z,102213.38
2022-10-08T15:03:31.832Z,102225.97
2022-10-08T15:05:59.380Z,102225.59
2022-10-08T15:08:25.815Z,102233.94
2022-10-08T15:10:52.226Z,102235.56
2022-10-08T15:13:18.540Z,102220.91
2022-10-08T15:15:45.215Z,102229.84
2022-10-08T15:18:12.218Z,102223.72
2022-10-08T15:20:39.353Z,102230.84
2022-10-08T15:23:06.673Z,102240.16
2022-10-08T15:25:33.331Z,102236.88
2022-10-08T15:27:59.679Z,102225.91
2022-10-08T15:30:25.991Z,102246.41
2022-10-08T15:32:52.325Z,102234.84
2022-10-08T15:35:18.634Z,102246.63
2022-10-08T15:37:45.564Z,102248.25
2022-10-08T15:40:11.898Z,102248.25
2022-10-08T15:42:38.209Z,102249.28
2022-10-08T15:45:04.997Z,102248.84
2022-10-08T15:47:31.372Z,102246.16
2022-10-08T15:49:57.710Z,102252.09
2022-10-08T15:52:24.080Z,102251.81
2022-10-08T15:54:50.432Z,102262.78
2022-10-08T15:57:17.872Z,102263.97
2022-10-08T15:59:44.448Z,102275.31
2022-10-08T16:02:16.628Z,102271.41
2022-10-08T16:04:45.843Z,102269.56
2022-10-08T16:07:12.215Z,102286.56
2022-10-08T16:09:38.523Z,102274.13
2022-10-08T16:12:04.888Z,102293.59
2022-10-08T16:14:31.214Z,102295.38
2022-10-08T16:16:57.615Z,102303.63
2022-10-08T16:19:25.918Z,102303.56
2022-10-08T16:21:54.383Z,102297.22
2022-10-08T16:24:21.374Z,102307.47
2022-10-08T16:26:47.721Z,102305.78
2022-10-08T16:29:15.542Z,102314.28
2022-10-08T16:31:43.937Z,102315.03
2022-10-08T16:34:21.221Z,102319.22
2022-10-08T16:36:47.911Z,102321.00
2022-10-08T16:39:19.646Z,102328.78
2022-10-08T16:41:46.838Z,102333.38
2022-10-08T16:44:15.855Z,102331.47
2022-10-08T16:46:45.128Z,102341.91
2022-10-08T16:49:24.661Z,102330.50
2022-10-08T16:51:58.874Z,102327.72
2022-10-08T16:54:25.826Z,102342.06
2022-10-08T16:56:52.133Z,102349.88
2022-10-08T16:59:21.058Z,102352.59
2022-10-08T17:01:50.472Z,102341.75
2022-10-08T17:04:18.182Z,102356.03
2022-10-08T17:06:44.531Z,102349.25
2022-10-08T17:09:11.212Z,102351.78
2022-10-08T17:11:38.092Z,102357.75
2022-10-08T17:14:05.339Z,102361.94
2022-10-08T17:16:31.998Z,102366.28
2022-10-08T17:18:59.945Z,102359.19
2022-10-08T17:21:27.386Z,102367.41
2022-10-08T17:23:53.916Z,102373.38
2022-10-08T17:26:22.472Z,102374.88
2022-10-08T17:28:50.660Z,102364.97
2022-10-08T17:31:22.915Z,102370.22
2022-10-08T17:33:49.833Z,102378.81
2022-10-08T17:36:27.890Z,102376.06
2022-10-08T17:38:56.943Z,102385.78
2022-10-08T17:41:31.512Z,102387.50
2022-10-08T17:44:00.597Z,102393.44
2022-10-08T17:46:29.661Z,102389.38
2022-10-08T17:48:56.447Z,102403.50
2022-10-08T17:51:28.102Z,102409.63
2022-10-08T17:53:57.336Z,102411.28
2022-10-08T17:56:25.374Z,102409.16
2022-10-08T17:58:52.402Z,102421.50
2022-10-08T18:01:27.191Z,102412.84
2022-10-08T18:04:02.492Z,102420.59
2022-10-08T18:06:30.258Z,102424.41
2022-10-08T18:08:58.261Z,102424.59
2022-10-08T18:11:25.339Z,102428.66
2022-10-08T18:13:51.685Z,102434.25
2022-10-08T18:16:19.408Z,102432.75
2022-10-08T18:18:46.850Z,102426.38
2022-10-08T18:21:15.609Z,102438.31
2022-10-08T18:23:42.518Z,102451.06
2022-10-08T18:26:20.258Z,102442.34
2022-10-08T18:28:52.844Z,102442.81
2022-10-08T18:31:21.134Z,102439.34
2022-10-08T18:33:49.023Z,102449.97
2022-10-08T18:36:18.098Z,102448.31
2022-10-08T18:38:46.657Z,102453.84
2022-10-08T18:41:18.761Z,102472.66
2022-10-08T18:43:46.612Z,102458.38
2022-10-08T18:46:14.587Z,102464.69
2022-10-08T18:48:41.576Z,102463.34
2022-10-08T18:51:11.266Z,102472.66
2022-10-08T18:53:39.995Z,102459.66
2022-10-08T18:56:18.481Z,102474.38
2022-10-08T18:58:45.254Z,102478.13
2022-10-08T19:01:23.509Z,102474.84
2022-10-08T19:03:52.274Z,102487.91
2022-10-08T19:06:20.788Z,102477.25
2022-10-08T19:08:47.137Z,102490.53
2022-10-08T19:11:19.769Z,102495.75
2022-10-08T19:13:46.399Z,102496.75
2022-10-08T19:16:13.145Z,102498.66
2022-10-08T19:18:44.832Z,102497.50
2022-10-08T19:21:13.123Z,102495.31
2022-10-08T19:23:39.887Z,102492.03
2022-10-08T19:26:06.811Z,102505.63
2022-10-08T19:28:35.004Z,102506.63
2022-10-08T19:31:01.375Z,102509.38
2022-10-08T19:33:27.686Z,102506.91
2022-10-08T19:35:59.897Z,102513.25
2022-10-08T19:38:26.214Z,102507.38
2022-10-08T19:40:52.544Z,102505.50
2022-10-08T19:43:18.868Z,102516.78
2022-10-08T19:45:45.152Z,102516.78
2022-10-08T19:48:11.473Z,102522.13
2022-10-08T19:50:37.778Z,102516.91
2022-10-08T19:53:04.198Z,102524.94
2022-10-08T19:55:30.527Z,102517.22
2022-10-08T19:57:57.306Z,102525.75
2022-10-08T20:00:23.637Z,102523.94
2022-10-08T20:02:50.397Z,102520.13
2022-10-08T20:05:17.026Z,102510.09
2022-10-08T20:07:43.347Z,102517.94
2022-10-08T20:10:10.164Z,102532.22
2022-10-08T20:12:36.451Z,102523.31
2022-10-08T20:15:02.755Z,102527.44
2022-10-08T20:17:29.075Z,102526.09
2022-10-08T20:20:09.338Z,102539.81
2022-10-08T20:22:41.755Z,102535.34
2022-10-08T20:25:08.197Z,102537.78
2022-10-08T20:27:34.711Z,102538.09
2022-10-08T20:30:02.155Z,102537.56
2022-10-08T20:32:28.429Z,102547.88
2022-10-08T20:34:54.666Z,102552.28
2022-10-08T20:37:20.963Z,102554.22
2022-10-08T20:39:47.289Z,102551.75
2022-10-08T20:42:13.577Z,102538.59
2022-10-08T20:44:39.867Z,102548.75
2022-10-08T20:47:06.128Z,102550.53
2022-10-08T20:49:32.467Z,102542.75
2022-10-08T20:51:58.746Z,102550.31
2022-10-08T20:54:24.977Z,102544.56
2022-10-08T20:56:51.276Z,102548.31
2022-10-08T20:59:18.683Z,102551.06
2022-10-08T21:01:45.716Z,102545.28
2022-10-08T21:04:12.541Z,102549.84
2022-10-08T21:06:59.086Z,102556.31
2022-10-08T21:09:25.374Z,102548.41
2022-10-08T21:11:51.593Z,102542.38
2022-10-08T21:14:20.228Z,102553.09
2022-10-08T21:16:46.856Z,102557.94
2022-10-08T21:19:18.817Z,102551.50
2022-10-08T21:21:45.136Z,102545.63
2022-10-08T21:24:11.340Z,102557.56
2022-10-08T21:26:39.878Z,102553.75
2022-10-08T21:29:09.347Z,102554.03
2022-10-08T21:31:38.010Z,102541.03
2022-10-08T21:34:05.406Z,102553.09
2022-10-08T21:36:34.659Z,102554.66
2022-10-08T21:39:02.653Z,102558.50
2022-10-08T21:41:31.582Z,102556.31
2022-10-08T21:44:00.358Z,102554.13
2022-10-08T21:46:29.209Z,102553.06
2022-10-08T21:48:59.143Z,102555.53
2022-10-08T21:51:26.708Z,102539.63
2022-10-08T21:53:56.174Z,102544.84
2022-10-08T21:56:25.695Z,102547.19
2022-10-08T21:58:54.351Z,102544.03
2022-10-08T22:01:22.582Z,102550.91
2022-10-08T22:03:53.221Z,102546.78
2022-10-08T22:06:19.543Z,102553.91
2022-10-08T22:08:45.899Z,102559.41
2022-10-08T22:11:12.241Z,102559.69
2022-10-08T22:13:38.561Z,102551.72
2022-10-08T22:16:05.386Z,102557.91
2022-10-08T22:18:33.029Z,102562.69
2022-10-08T22:21:08.534Z,102549.53
2022-10-08T22:23:35.884Z,102549.53
2022-10-08T22:26:06.638Z,102559.53
2022-10-08T22:28:33.610Z,102558.31
2022-10-08T22:31:03.736Z,102563.13
2022-10-08T22:33:30.299Z,102566.53
2022-10-08T22:36:05.540Z,102555.19
2022-10-08T22:38:37.376Z,102563.50
2022-10-08T22:41:05.837Z,102555.56
2022-10-08T22:43:32.295Z,102565.16
2022-10-08T22:46:09.863Z,102564.91
2022-10-08T22:48:36.269Z,102565.16
2022-10-08T22:51:08.000Z,102563.53
2022-10-08T22:53:35.187Z,102569.81
2022-10-08T22:56:06.286Z,102560.22
2022-10-08T22:58:33.938Z,102564.06
2022-10-08T23:01:09.513Z,102570.09
2022-10-08T23:03:36.860Z,102573.09
2022-10-08T23:06:10.781Z,102575.16
2022-10-08T23:08:37.223Z,102563.22
2022-10-08T23:11:03.641Z,102564.00
2022-10-08T23:13:30.177Z,102568.25
2022-10-08T23:16:04.222Z,102561.38
2022-10-08T23:18:32.464Z,102565.91
2022-10-08T23:21:03.272Z,102576.44
2022-10-08T23:23:30.782Z,102571.22
2022-10-08T23:25:59.789Z,102570.28
2022-10-08T23:28:27.143Z,102552.56
2022-10-08T23:30:53.755Z,102564.13
2022-10-08T23:33:20.546Z,102565.22
2022-10-08T23:35:54.707Z,102563.94
2022-10-08T23:38:21.800Z,102561.44
2022-10-08T23:40:49.196Z,102555.16
2022-10-08T23:43:15.597Z,102545.97
2022-10-08T23:45:42.113Z,102568.56
2022-10-08T23:48:08.494Z,102567.75
2022-10-08T23:50:38.681Z,102563.50
2022-10-08T23:53:05.094Z,102567.06
2022-10-08T23:55:31.399Z,102568.72
2022-10-08T23:57:57.634Z,102566.13
